sensor_id;sensor_type;location;lat;lon;timestamp;pressure;altitude;pressure_sealevel;temperature;humidity
64602;BME280;51013;42.630;23.192;2022-07-17T00:01:05;92795.16;;;18.68;74.05
64602;BME280;51013;42.630;23.192;2022-07-17T00:03:32;92850.78;;;18.98;73.71
64602;BME280;51013;42.630;23.192;2022-07-17T00:05:59;92821.03;;;18.75;74.50
64602;BME280;51013;42.630;23.192;2022-07-17T00:08:27;92856.88;;;19.02;74.69
64602;BME280;51013;42.630;23.192;2022-07-17T00:10:57;92852.69;;;18.98;74.10
64602;BME280;51013;42.630;23.192;2022-07-17T00:13:24;92828.72;;;18.84;74.38
64602;BME280;51013;42.630;23.192;2022-07-17T00:15:54;92816.06;;;18.73;74.38
64602;BME280;51013;42.630;23.192;2022-07-17T00:18:21;92879.31;;;18.94;74.93
64602;BME280;51013;42.630;23.192;2022-07-17T00:20:48;92856.47;;;18.93;74.37
64602;BME280;51013;42.630;23.192;2022-07-17T00:23:15;92859.16;;;18.97;74.49
64602;BME280;51013;42.630;23.192;2022-07-17T00:25:42;92813.38;;;18.52;74.76
64602;BME280;51013;42.630;23.192;2022-07-17T00:28:09;92841.53;;;18.67;75.03
64602;BME280;51013;42.630;23.192;2022-07-17T00:30:36;92860.25;;;18.85;74.79
64602;BME280;51013;42.630;23.192;2022-07-17T00:33:05;92716.22;;;17.85;74.91
64602;BME280;51013;42.630;23.192;2022-07-17T00:35:32;92652.19;;;17.41;75.45
64602;BME280;51013;42.630;23.192;2022-07-17T00:37:59;92833.56;;;18.64;75.82
64602;BME280;51013;42.630;23.192;2022-07-17T00:40:26;92787.41;;;18.31;75.84
64602;BME280;51013;42.630;23.192;2022-07-17T00:42:53;92606.50;;;17.04;75.99
64602;BME280;51013;42.630;23.192;2022-07-17T00:45:21;92803.00;;;18.32;76.05
64602;BME280;51013;42.630;23.192;2022-07-17T00:47:53;92848.41;;;18.72;76.32
64602;BME280;51013;42.630;23.192;2022-07-17T00:50:23;92855.25;;;18.73;76.61
64602;BME280;51013;42.630;23.192;2022-07-17T00:52:51;92828.53;;;18.48;76.79
64602;BME280;51013;42.630;23.192;2022-07-17T00:55:18;92856.72;;;18.67;76.58
64602;BME280;51013;42.630;23.192;2022-07-17T00:57:46;92678.41;;;17.47;76.83
64602;BME280;51013;42.630;23.192;2022-07-17T01:00:14;92747.00;;;17.89;77.24
64602;BME280;51013;42.630;23.192;2022-07-17T01:02:44;92851.00;;;18.61;77.56
64602;BME280;51013;42.630;23.192;2022-07-17T01:05:12;92700.09;;;17.56;77.20
64602;BME280;51013;42.630;23.192;2022-07-17T01:07:40;92803.75;;;18.33;77.53
64602;BME280;51013;42.630;23.192;2022-07-17T01:10:08;92670.72;;;17.31;77.22
64602;BME280;51013;42.630;23.192;2022-07-17T01:12:35;92811.34;;;18.31;76.62
64602;BME280;51013;42.630;23.192;2022-07-17T01:15:04;92812.53;;;18.37;76.91
64602;BME280;51013;42.630;23.192;2022-07-17T01:17:31;92851.03;;;18.68;77.15
64602;BME280;51013;42.630;23.192;2022-07-17T01:19:58;92857.50;;;18.71;76.73
64602;BME280;51013;42.630;23.192;2022-07-17T01:22:26;92846.44;;;18.54;76.74
64602;BME280;51013;42.630;23.192;2022-07-17T01:24:55;92846.44;;;18.58;76.99
64602;BME280;51013;42.630;23.192;2022-07-17T01:27:22;92698.91;;;17.50;77.16
64602;BME280;51013;42.630;23.192;2022-07-17T01:29:49;92818.66;;;18.41;76.97
64602;BME280;51013;42.630;23.192;2022-07-17T01:32:16;92817.47;;;18.31;76.89
64602;BME280;51013;42.630;23.192;2022-07-17T01:34:43;92821.59;;;18.21;77.13
64602;BME280;51013;42.630;23.192;2022-07-17T01:37:10;92852.47;;;18.44;76.46
64602;BME280;51013;42.630;23.192;2022-07-17T01:39:38;92833.03;;;18.29;76.51
64602;BME280;51013;42.630;23.192;2022-07-17T01:42:26;92856.63;;;18.41;76.66
64602;BME280;51013;42.630;23.192;2022-07-17T01:44:55;92824.28;;;18.25;76.60
64602;BME280;51013;42.630;23.192;2022-07-17T01:47:22;92828.81;;;18.28;77.00
64602;BME280;51013;42.630;23.192;2022-07-17T01:49:52;92754.50;;;17.76;76.31
64602;BME280;51013;42.630;23.192;2022-07-17T01:52:20;92822.69;;;18.13;77.34
64602;BME280;51013;42.630;23.192;2022-07-17T01:54:49;92863.44;;;18.35;76.88
64602;BME280;51013;42.630;23.192;2022-07-17T01:57:16;92689.66;;;17.22;76.73
64602;BME280;51013;42.630;23.192;2022-07-17T01:59:43;92861.91;;;18.34;76.84
64602;BME280;51013;42.630;23.192;2022-07-17T02:02:10;92845.09;;;18.16;77.15
64602;BME280;51013;42.630;23.192;2022-07-17T02:04:38;92829.53;;;18.18;76.92
64602;BME280;51013;42.630;23.192;2022-07-17T02:07:07;92840.94;;;18.18;77.29
64602;BME280;51013;42.630;23.192;2022-07-17T02:09:35;92789.84;;;17.84;76.91
64602;BME280;51013;42.630;23.192;2022-07-17T02:12:04;92857.28;;;18.24;77.00
64602;BME280;51013;42.630;23.192;2022-07-17T02:14:31;92820.34;;;18.08;77.07
64602;BME280;51013;42.630;23.192;2022-07-17T02:16:58;92854.66;;;18.28;76.81
64602;BME280;51013;42.630;23.192;2022-07-17T02:19:26;92694.94;;;17.18;76.83
64602;BME280;51013;42.630;23.192;2022-07-17T02:21:53;92861.47;;;18.21;76.71
64602;BME280;51013;42.630;23.192;2022-07-17T02:24:20;92812.75;;;18.03;76.94
64602;BME280;51013;42.630;23.192;2022-07-17T02:26:47;92851.97;;;18.24;76.60
64602;BME280;51013;42.630;23.192;2022-07-17T02:44:05;92824.84;;;18.74;71.88
64602;BME280;51013;42.630;23.192;2022-07-17T02:46:32;92820.19;;;18.49;72.76
64602;BME280;51013;42.630;23.192;2022-07-17T02:48:59;92830.03;;;18.41;73.01
64602;BME280;51013;42.630;23.192;2022-07-17T02:51:26;92841.78;;;18.33;72.96
64602;BME280;51013;42.630;23.192;2022-07-17T02:53:53;92754.00;;;17.60;73.84
64602;BME280;51013;42.630;23.192;2022-07-17T02:56:21;92675.16;;;17.12;73.65
64602;BME280;51013;42.630;23.192;2022-07-17T02:58:48;92823.03;;;18.05;74.27
64602;BME280;51013;42.630;23.192;2022-07-17T03:01:16;92855.38;;;18.17;72.65
64602;BME280;51013;42.630;23.192;2022-07-17T03:03:43;92835.50;;;17.97;74.42
64602;BME280;51013;42.630;23.192;2022-07-17T03:06:10;92829.00;;;17.91;74.20
64602;BME280;51013;42.630;23.192;2022-07-17T03:08:37;92703.25;;;17.13;73.52
64602;BME280;51013;42.630;23.192;2022-07-17T03:11:04;92857.59;;;18.12;74.48
64602;BME280;51013;42.630;23.192;2022-07-17T03:13:31;92848.03;;;18.00;74.37
64602;BME280;51013;42.630;23.192;2022-07-17T03:15:58;92860.63;;;18.10;73.61
64602;BME280;51013;42.630;23.192;2022-07-17T03:18:27;92852.97;;;17.94;73.31
64602;BME280;51013;42.630;23.192;2022-07-17T03:20:54;92846.81;;;17.90;72.29
64602;BME280;51013;42.630;23.192;2022-07-17T03:23:23;92851.38;;;17.90;73.05
64602;BME280;51013;42.630;23.192;2022-07-17T03:25:50;92849.00;;;17.77;72.86
64602;BME280;51013;42.630;23.192;2022-07-17T03:28:16;92859.19;;;17.72;72.87
64602;BME280;51013;42.630;23.192;2022-07-17T03:30:43;92857.72;;;17.74;72.33
64602;BME280;51013;42.630;23.192;2022-07-17T03:33:10;92857.25;;;17.65;72.75
64602;BME280;51013;42.630;23.192;2022-07-17T03:35:38;92891.25;;;17.90;72.75
64602;BME280;51013;42.630;23.192;2022-07-17T03:38:05;92871.41;;;17.76;72.17
64602;BME280;51013;42.630;23.192;2022-07-17T03:40:33;92875.25;;;17.82;72.31
64602;BME280;51013;42.630;23.192;2022-07-17T03:42:59;92902.69;;;17.94;73.76
64602;BME280;51013;42.630;23.192;2022-07-17T03:45:26;92895.88;;;17.96;72.46
64602;BME280;51013;42.630;23.192;2022-07-17T03:47:54;92896.28;;;17.98;72.77
64602;BME280;51013;42.630;23.192;2022-07-17T03:50:21;92889.75;;;17.89;73.86
64602;BME280;51013;42.630;23.192;2022-07-17T03:52:49;92911.91;;;18.07;73.79
64602;BME280;51013;42.630;23.192;2022-07-17T03:55:16;92910.75;;;18.08;73.97
64602;BME280;51013;42.630;23.192;2022-07-17T03:57:43;92800.47;;;17.32;73.35
64602;BME280;51013;42.630;23.192;2022-07-17T04:00:11;92816.13;;;17.45;74.18
64602;BME280;51013;42.630;23.192;2022-07-17T04:02:38;92903.94;;;18.11;73.39
64602;BME280;51013;42.630;23.192;2022-07-17T04:05:05;92921.88;;;18.21;73.27
64602;BME280;51013;42.630;23.192;2022-07-17T04:07:35;92921.88;;;18.21;73.77
64602;BME280;51013;42.630;23.192;2022-07-17T04:10:05;92765.50;;;17.23;72.95
64602;BME280;51013;42.630;23.192;2022-07-17T04:12:33;92797.13;;;17.42;73.63
64602;BME280;51013;42.630;23.192;2022-07-17T04:15:04;92916.19;;;18.26;73.37
64602;BME280;51013;42.630;23.192;2022-07-17T04:17:31;92893.31;;;18.14;73.47
64602;BME280;51013;42.630;23.192;2022-07-17T04:19:58;92905.59;;;18.30;74.08
64602;BME280;51013;42.630;23.192;2022-07-17T04:22:26;92898.34;;;18.30;73.76
64602;BME280;51013;42.630;23.192;2022-07-17T04:24:53;92926.59;;;18.49;74.28
64602;BME280;51013;42.630;23.192;2022-07-17T04:27:21;92821.69;;;17.80;72.83
64602;BME280;51013;42.630;23.192;2022-07-17T04:29:48;92923.22;;;18.56;72.72
64602;BME280;51013;42.630;23.192;2022-07-17T04:32:15;92853.38;;;18.04;72.27
64602;BME280;51013;42.630;23.192;2022-07-17T04:34:42;92784.72;;;17.57;71.62
64602;BME280;51013;42.630;23.192;2022-07-17T04:37:09;92909.53;;;18.57;72.12
64602;BME280;51013;42.630;23.192;2022-07-17T04:39:35;92898.50;;;18.55;71.50
64602;BME280;51013;42.630;23.192;2022-07-17T04:42:02;92877.94;;;18.45;71.37
64602;BME280;51013;42.630;23.192;2022-07-17T04:44:32;92915.31;;;18.77;70.68
64602;BME280;51013;42.630;23.192;2022-07-17T04:46:59;92899.69;;;18.61;70.89
64602;BME280;51013;42.630;23.192;2022-07-17T04:49:26;92929.09;;;18.87;69.12
64602;BME280;51013;42.630;23.192;2022-07-17T04:51:52;92945.84;;;18.94;70.68
64602;BME280;51013;42.630;23.192;2022-07-17T04:54:19;92956.91;;;19.04;70.57
64602;BME280;51013;42.630;23.192;2022-07-17T04:56:46;92944.41;;;19.11;71.12
64602;BME280;51013;42.630;23.192;2022-07-17T04:59:13;92922.69;;;19.09;69.82
64602;BME280;51013;42.630;23.192;2022-07-17T05:01:42;92959.69;;;19.32;69.51
64602;BME280;51013;42.630;23.192;2022-07-17T05:04:09;92775.16;;;18.08;68.77
64602;BME280;51013;42.630;23.192;2022-07-17T05:06:36;92756.97;;;18.14;68.20
64602;BME280;51013;42.630;23.192;2022-07-17T05:09:03;92952.13;;;19.49;66.07
64602;BME280;51013;42.630;23.192;2022-07-17T05:11:30;92924.66;;;19.34;67.30
64602;BME280;51013;42.630;23.192;2022-07-17T05:13:59;92889.63;;;19.14;67.12
64602;BME280;51013;42.630;23.192;2022-07-17T05:16:26;92920.91;;;19.46;63.91
64602;BME280;51013;42.630;23.192;2022-07-17T05:18:54;92933.88;;;19.51;64.19
64602;BME280;51013;42.630;23.192;2022-07-17T05:21:21;92967.81;;;19.75;63.24
64602;BME280;51013;42.630;23.192;2022-07-17T05:23:48;92933.13;;;19.61;60.12
64602;BME280;51013;42.630;23.192;2022-07-17T05:26:15;92929.66;;;19.60;58.15
64602;BME280;51013;42.630;23.192;2022-07-17T05:28:42;92870.59;;;19.15;59.21
64602;BME280;51013;42.630;23.192;2022-07-17T05:31:09;92962.84;;;19.85;60.35
64602;BME280;51013;42.630;23.192;2022-07-17T05:33:36;92961.75;;;19.89;55.98
64602;BME280;51013;42.630;23.192;2022-07-17T05:36:05;92945.34;;;19.84;56.25
64602;BME280;51013;42.630;23.192;2022-07-17T05:38:32;92974.31;;;19.99;58.15
64602;BME280;51013;42.630;23.192;2022-07-17T05:41:00;92972.00;;;19.94;56.89
64602;BME280;51013;42.630;23.192;2022-07-17T05:43:27;92938.47;;;19.72;55.66
64602;BME280;51013;42.630;23.192;2022-07-17T05:45:55;92967.06;;;20.00;57.25
64602;BME280;51013;42.630;23.192;2022-07-17T05:48:22;92971.25;;;20.08;55.17
64602;BME280;51013;42.630;23.192;2022-07-17T05:50:49;92973.53;;;20.17;55.92
64602;BME280;51013;42.630;23.192;2022-07-17T05:53:18;92935.44;;;20.09;55.59
64602;BME280;51013;42.630;23.192;2022-07-17T05:55:45;92957.56;;;20.28;54.27
64602;BME280;51013;42.630;23.192;2022-07-17T05:58:12;92946.50;;;20.26;52.31
64602;BME280;51013;42.630;23.192;2022-07-17T06:00:39;92966.69;;;20.45;54.31
64602;BME280;51013;42.630;23.192;2022-07-17T06:03:06;92966.28;;;20.57;54.76
64602;BME280;51013;42.630;23.192;2022-07-17T06:05:33;92925.94;;;20.30;54.32
64602;BME280;51013;42.630;23.192;2022-07-17T06:08:02;92962.09;;;20.63;52.63
64602;BME280;51013;42.630;23.192;2022-07-17T06:10:30;92972.00;;;20.77;51.87
64602;BME280;51013;42.630;23.192;2022-07-17T06:12:57;92968.16;;;20.78;53.64
64602;BME280;51013;42.630;23.192;2022-07-17T06:15:24;92954.84;;;20.64;54.12
64602;BME280;51013;42.630;23.192;2022-07-17T06:17:51;92978.84;;;20.78;54.11
64602;BME280;51013;42.630;23.192;2022-07-17T06:20:18;92981.47;;;20.92;52.47
64602;BME280;51013;42.630;23.192;2022-07-17T06:22:46;92984.16;;;20.92;52.42
64602;BME280;51013;42.630;23.192;2022-07-17T06:25:13;92857.72;;;20.14;52.68
64602;BME280;51013;42.630;23.192;2022-07-17T06:27:41;92895.00;;;20.43;52.07
64602;BME280;51013;42.630;23.192;2022-07-17T06:30:10;92909.09;;;20.61;54.33
64602;BME280;51013;42.630;23.192;2022-07-17T06:32:38;92885.50;;;20.42;53.97
64602;BME280;51013;42.630;23.192;2022-07-17T06:35:07;92971.91;;;21.06;53.13
64602;BME280;51013;42.630;23.192;2022-07-17T06:37:35;92985.94;;;21.28;51.39
64602;BME280;51013;42.630;23.192;2022-07-17T06:40:05;92994.72;;;21.32;52.04
64602;BME280;51013;42.630;23.192;2022-07-17T06:42:34;92873.28;;;20.59;52.36
64602;BME280;51013;42.630;23.192;2022-07-17T06:45:02;92943.69;;;21.05;50.89
64602;BME280;51013;42.630;23.192;2022-07-17T06:47:29;92883.56;;;20.64;50.93
64602;BME280;51013;42.630;23.192;2022-07-17T06:49:56;92996.19;;;21.51;52.40
64602;BME280;51013;42.630;23.192;2022-07-17T06:52:23;92983.16;;;21.60;51.94
64602;BME280;51013;42.630;23.192;2022-07-17T06:54:50;92810.38;;;20.51;51.32
64602;BME280;51013;42.630;23.192;2022-07-17T06:57:17;92944.66;;;21.47;51.12
64602;BME280;51013;42.630;23.192;2022-07-17T06:59:44;92952.66;;;21.54;51.25
64602;BME280;51013;42.630;23.192;2022-07-17T07:02:12;92993.31;;;21.90;52.49
64602;BME280;51013;42.630;23.192;2022-07-17T07:04:40;92992.84;;;22.03;51.92
64602;BME280;51013;42.630;23.192;2022-07-17T07:07:10;92966.56;;;21.90;51.37
64602;BME280;51013;42.630;23.192;2022-07-17T07:09:37;92921.28;;;21.62;49.69
64602;BME280;51013;42.630;23.192;2022-07-17T07:12:05;93008.41;;;22.18;50.50
64602;BME280;51013;42.630;23.192;2022-07-17T07:14:32;92962.81;;;21.77;49.55
64602;BME280;51013;42.630;23.192;2022-07-17T07:16:59;92992.34;;;22.18;50.05
64602;BME280;51013;42.630;23.192;2022-07-17T07:19:28;92997.63;;;22.33;50.50
64602;BME280;51013;42.630;23.192;2022-07-17T07:21:55;92980.47;;;22.27;48.51
64602;BME280;51013;42.630;23.192;2022-07-17T07:24:22;92982.72;;;22.28;50.22
64602;BME280;51013;42.630;23.192;2022-07-17T07:26:49;92877.38;;;21.59;49.02
64602;BME280;51013;42.630;23.192;2022-07-17T07:29:16;92993.72;;;22.45;48.12
64602;BME280;51013;42.630;23.192;2022-07-17T07:31:43;93021.53;;;22.54;47.83
64602;BME280;51013;42.630;23.192;2022-07-17T07:34:11;92968.28;;;22.18;48.85
64602;BME280;51013;42.630;23.192;2022-07-17T07:36:39;93029.06;;;22.67;50.06
64602;BME280;51013;42.630;23.192;2022-07-17T07:39:07;93020.28;;;22.66;48.83
64602;BME280;51013;42.630;23.192;2022-07-17T07:41:34;93019.44;;;22.73;47.51
64602;BME280;51013;42.630;23.192;2022-07-17T07:44:01;93031.66;;;22.77;47.65
64602;BME280;51013;42.630;23.192;2022-07-17T07:46:28;93025.94;;;22.75;48.32
64602;BME280;51013;42.630;23.192;2022-07-17T07:48:55;93035.03;;;22.85;47.64
64602;BME280;51013;42.630;23.192;2022-07-17T07:51:22;93030.41;;;22.89;47.11
64602;BME280;51013;42.630;23.192;2022-07-17T07:53:51;93021.94;;;22.94;46.22
64602;BME280;51013;42.630;23.192;2022-07-17T07:56:17;92989.59;;;22.74;47.98
64602;BME280;51013;42.630;23.192;2022-07-17T07:58:45;92911.63;;;22.31;46.60
64602;BME280;51013;42.630;23.192;2022-07-17T08:01:13;93016.25;;;22.89;46.77
64602;BME280;51013;42.630;23.192;2022-07-17T08:03:40;93012.34;;;22.97;45.84
64602;BME280;51013;42.630;23.192;2022-07-17T08:06:07;92945.38;;;22.59;48.00
64602;BME280;51013;42.630;23.192;2022-07-17T08:08:34;92804.28;;;21.80;49.08
64602;BME280;51013;42.630;23.192;2022-07-17T08:11:02;93038.72;;;23.40;47.68
64602;BME280;51013;42.630;23.192;2022-07-17T08:13:29;92939.34;;;22.89;45.88
64602;BME280;51013;42.630;23.192;2022-07-17T08:15:57;93037.78;;;23.54;46.47
64602;BME280;51013;42.630;23.192;2022-07-17T08:18:25;93036.25;;;23.53;46.26
64602;BME280;51013;42.630;23.192;2022-07-17T08:20:52;92895.75;;;22.51;45.76
64602;BME280;51013;42.630;23.192;2022-07-17T08:23:19;93024.53;;;23.39;45.69
64602;BME280;51013;42.630;23.192;2022-07-17T08:25:46;93006.50;;;23.44;45.26
64602;BME280;51013;42.630;23.192;2022-07-17T08:28:15;93016.03;;;23.48;46.46
64602;BME280;51013;42.630;23.192;2022-07-17T08:30:42;93032.97;;;23.72;45.62
64602;BME280;51013;42.630;23.192;2022-07-17T08:33:10;92986.78;;;23.57;44.95
64602;BME280;51013;42.630;23.192;2022-07-17T08:35:40;92870.59;;;22.79;43.91
64602;BME280;51013;42.630;23.192;2022-07-17T08:38:07;92998.97;;;23.62;47.16
64602;BME280;51013;42.630;23.192;2022-07-17T08:40:35;93030.41;;;23.92;46.26
64602;BME280;51013;42.630;23.192;2022-07-17T08:43:04;93043.75;;;23.99;45.77
64602;BME280;51013;42.630;23.192;2022-07-17T08:45:33;92947.94;;;23.42;45.81
64602;BME280;51013;42.630;23.192;2022-07-17T08:48:00;93042.75;;;24.17;44.58
64602;BME280;51013;42.630;23.192;2022-07-17T08:50:29;92992.94;;;23.89;43.80
64602;BME280;51013;42.630;23.192;2022-07-17T08:52:57;93050.38;;;24.18;45.40
64602;BME280;51013;42.630;23.192;2022-07-17T08:55:24;93040.44;;;24.19;44.03
64602;BME280;51013;42.630;23.192;2022-07-17T08:57:51;93041.00;;;24.30;43.95
64602;BME280;51013;42.630;23.192;2022-07-17T09:00:20;92992.22;;;24.12;43.74
64602;BME280;51013;42.630;23.192;2022-07-17T09:02:58;92924.72;;;23.59;44.29
64602;BME280;51013;42.630;23.192;2022-07-17T09:05:27;93023.97;;;24.40;43.25
64602;BME280;51013;42.630;23.192;2022-07-17T09:07:55;92879.66;;;23.50;43.98
64602;BME280;51013;42.630;23.192;2022-07-17T09:10:36;92964.13;;;24.16;44.78
64602;BME280;51013;42.630;23.192;2022-07-17T09:13:14;92960.69;;;24.16;42.29
64602;BME280;51013;42.630;23.192;2022-07-17T09:15:43;92948.00;;;24.20;44.35
64602;BME280;51013;42.630;23.192;2022-07-17T09:18:13;93040.47;;;24.90;44.11
64602;BME280;51013;42.630;23.192;2022-07-17T09:20:44;93048.06;;;24.95;43.64
64602;BME280;51013;42.630;23.192;2022-07-17T09:23:13;92892.13;;;23.88;41.74
64602;BME280;51013;42.630;23.192;2022-07-17T09:25:42;92925.88;;;24.12;44.44
64602;BME280;51013;42.630;23.192;2022-07-17T09:28:13;92805.41;;;23.44;41.71
64602;BME280;51013;42.630;23.192;2022-07-17T09:30:42;92966.44;;;24.65;39.89
64602;BME280;51013;42.630;23.192;2022-07-17T09:33:14;93039.47;;;25.27;43.90
64602;BME280;51013;42.630;23.192;2022-07-17T09:35:45;93001.50;;;25.02;41.33
64602;BME280;51013;42.630;23.192;2022-07-17T09:38:13;93042.56;;;25.26;42.25
64602;BME280;51013;42.630;23.192;2022-07-17T09:40:40;93028.56;;;25.34;41.82
64602;BME280;51013;42.630;23.192;2022-07-17T09:43:24;93033.81;;;25.42;41.99
64602;BME280;51013;42.630;23.192;2022-07-17T09:45:51;92953.97;;;24.98;43.68
64602;BME280;51013;42.630;23.192;2022-07-17T09:48:19;92990.56;;;25.32;44.48
64602;BME280;51013;42.630;23.192;2022-07-17T09:50:46;92896.78;;;24.78;42.47
64602;BME280;51013;42.630;23.192;2022-07-17T09:53:16;92943.16;;;25.22;44.37
64602;BME280;51013;42.630;23.192;2022-07-17T09:55:45;92977.91;;;25.53;43.29
64602;BME280;51013;42.630;23.192;2022-07-17T09:58:12;93032.34;;;25.97;43.60
64602;BME280;51013;42.630;23.192;2022-07-17T10:00:41;92960.97;;;25.52;39.13
64602;BME280;51013;42.630;23.192;2022-07-17T10:03:08;93037.00;;;26.13;37.67
64602;BME280;51013;42.630;23.192;2022-07-17T10:05:36;93026.75;;;26.24;44.82
64602;BME280;51013;42.630;23.192;2022-07-17T10:08:04;92905.69;;;25.51;41.04
64602;BME280;51013;42.630;23.192;2022-07-17T10:10:32;92986.78;;;26.23;41.56
64602;BME280;51013;42.630;23.192;2022-07-17T10:12:59;92920.09;;;25.61;38.87
64602;BME280;51013;42.630;23.192;2022-07-17T10:15:27;92990.81;;;26.14;40.40
64602;BME280;51013;42.630;23.192;2022-07-17T10:18:04;93019.97;;;26.36;41.43
64602;BME280;51013;42.630;23.192;2022-07-17T10:20:31;92977.09;;;26.25;41.89
64602;BME280;51013;42.630;23.192;2022-07-17T10:23:10;92979.63;;;26.32;40.74
64602;BME280;51013;42.630;23.192;2022-07-17T10:25:37;92923.09;;;26.00;39.42
64602;BME280;51013;42.630;23.192;2022-07-17T10:28:04;92941.00;;;26.23;42.86
64602;BME280;51013;42.630;23.192;2022-07-17T10:30:33;92775.31;;;25.23;39.96
64602;BME280;51013;42.630;23.192;2022-07-17T10:33:04;93001.22;;;26.94;41.09
64602;BME280;51013;42.630;23.192;2022-07-17T10:35:43;92868.66;;;26.08;36.86
64602;BME280;51013;42.630;23.192;2022-07-17T10:38:12;92869.41;;;26.09;39.34
64602;BME280;51013;42.630;23.192;2022-07-17T10:40:40;93022.78;;;27.27;40.00
64602;BME280;51013;42.630;23.192;2022-07-17T10:43:08;93006.94;;;27.42;41.84
64602;BME280;51013;42.630;23.192;2022-07-17T10:45:37;93008.25;;;27.50;39.15
64602;BME280;51013;42.630;23.192;2022-07-17T10:48:06;92878.91;;;26.75;37.22
64602;BME280;51013;42.630;23.192;2022-07-17T10:50:35;92862.59;;;26.95;40.26
64602;BME280;51013;42.630;23.192;2022-07-17T10:53:16;92958.94;;;27.50;38.13
64602;BME280;51013;42.630;23.192;2022-07-17T10:55:48;92878.44;;;27.06;37.90
64602;BME280;51013;42.630;23.192;2022-07-17T10:58:20;93006.44;;;28.02;35.29
64602;BME280;51013;42.630;23.192;2022-07-17T11:01:03;92937.19;;;27.70;40.61
64602;BME280;51013;42.630;23.192;2022-07-17T11:03:36;92848.47;;;27.04;38.30
64602;BME280;51013;42.630;23.192;2022-07-17T11:06:11;92931.00;;;27.56;35.96
64602;BME280;51013;42.630;23.192;2022-07-17T11:08:46;93009.03;;;28.19;41.46
64602;BME280;51013;42.630;23.192;2022-07-17T11:11:14;92914.28;;;27.62;36.76
64602;BME280;51013;42.630;23.192;2022-07-17T11:13:41;92982.97;;;28.37;35.80
64602;BME280;51013;42.630;23.192;2022-07-17T11:16:09;92999.28;;;28.47;37.98
64602;BME280;51013;42.630;23.192;2022-07-17T11:18:45;92850.81;;;27.44;39.39
64602;BME280;51013;42.630;23.192;2022-07-17T11:21:12;92960.94;;;28.39;34.63
64602;BME280;51013;42.630;23.192;2022-07-17T11:23:51;92904.34;;;28.23;33.04
64602;BME280;51013;42.630;23.192;2022-07-17T11:26:20;92992.47;;;29.03;31.97
64602;BME280;51013;42.630;23.192;2022-07-17T11:28:49;92880.16;;;28.54;35.79
64602;BME280;51013;42.630;23.192;2022-07-17T11:31:19;92835.25;;;28.34;34.31
64602;BME280;51013;42.630;23.192;2022-07-17T11:33:49;92902.38;;;28.93;33.45
64602;BME280;51013;42.630;23.192;2022-07-17T11:36:23;92933.16;;;29.08;31.85
64602;BME280;51013;42.630;23.192;2022-07-17T11:38:55;92940.34;;;29.46;36.64
64602;BME280;51013;42.630;23.192;2022-07-17T11:41:30;92937.88;;;29.70;37.37
64602;BME280;51013;42.630;23.192;2022-07-17T11:43:59;92957.19;;;30.04;35.04
64602;BME280;51013;42.630;23.192;2022-07-17T11:46:28;92965.75;;;30.02;33.46
64602;BME280;51013;42.630;23.192;2022-07-17T11:48:55;92978.06;;;30.34;34.24
64602;BME280;51013;42.630;23.192;2022-07-17T11:51:33;92827.81;;;29.67;35.10
64602;BME280;51013;42.630;23.192;2022-07-17T11:54:05;92820.50;;;29.46;32.51
64602;BME280;51013;42.630;23.192;2022-07-17T11:56:33;92930.81;;;30.35;32.94
64602;BME280;51013;42.630;23.192;2022-07-17T11:59:01;92889.13;;;30.42;34.16
64602;BME280;51013;42.630;23.192;2022-07-17T12:01:36;92956.34;;;30.93;31.54
64602;BME280;51013;42.630;23.192;2022-07-17T12:04:07;92732.47;;;29.63;32.13
64602;BME280;51013;42.630;23.192;2022-07-17T12:06:34;92968.84;;;31.37;33.19
64602;BME280;51013;42.630;23.192;2022-07-17T12:09:04;92874.81;;;30.69;31.63
64602;BME280;51013;42.630;23.192;2022-07-17T12:11:32;92852.09;;;30.94;31.68
64602;BME280;51013;42.630;23.192;2022-07-17T12:14:04;92805.38;;;30.90;29.61
64602;BME280;51013;42.630;23.192;2022-07-17T12:16:33;92943.28;;;32.23;28.77
64602;BME280;51013;42.630;23.192;2022-07-17T12:19:05;92928.28;;;32.04;29.15
64602;BME280;51013;42.630;23.192;2022-07-17T12:21:44;92902.19;;;31.36;28.29
64602;BME280;51013;42.630;23.192;2022-07-17T12:24:19;92891.94;;;31.49;30.28
64602;BME280;51013;42.630;23.192;2022-07-17T12:26:46;92954.28;;;32.29;31.36
64602;BME280;51013;42.630;23.192;2022-07-17T12:29:13;92959.94;;;32.73;29.09
64602;BME280;51013;42.630;23.192;2022-07-17T12:31:40;92958.38;;;33.21;29.59
64602;BME280;51013;42.630;23.192;2022-07-17T12:34:07;92935.13;;;33.35;26.61
64602;BME280;51013;42.630;23.192;2022-07-17T12:36:34;92852.44;;;33.32;27.78
64602;BME280;51013;42.630;23.192;2022-07-17T12:39:01;92965.66;;;33.83;26.21
64602;BME280;51013;42.630;23.192;2022-07-17T12:41:29;92975.38;;;33.84;27.33
64602;BME280;51013;42.630;23.192;2022-07-17T12:43:56;92902.19;;;33.18;27.89
64602;BME280;51013;42.630;23.192;2022-07-17T12:46:23;92957.53;;;33.15;27.76
64602;BME280;51013;42.630;23.192;2022-07-17T12:48:51;92874.53;;;32.56;29.50
64602;BME280;51013;42.630;23.192;2022-07-17T12:51:18;92947.03;;;32.83;28.44
64602;BME280;51013;42.630;23.192;2022-07-17T12:53:45;92826.78;;;31.83;28.87
64602;BME280;51013;42.630;23.192;2022-07-17T12:56:12;92897.13;;;32.14;30.86
64602;BME280;51013;42.630;23.192;2022-07-17T12:58:40;92929.91;;;32.68;29.75
64602;BME280;51013;42.630;23.192;2022-07-17T13:01:07;92901.97;;;32.34;30.05
64602;BME280;51013;42.630;23.192;2022-07-17T13:03:34;92937.63;;;32.84;31.92
64602;BME280;51013;42.630;23.192;2022-07-17T13:06:02;92933.25;;;32.87;31.26
64602;BME280;51013;42.630;23.192;2022-07-17T13:08:30;92953.81;;;33.03;30.17
64602;BME280;51013;42.630;23.192;2022-07-17T13:10:58;92934.34;;;32.80;29.52